Time;durP1;ratioP1;P1;durP2;ratioP2;P2;SDS_P1;SDS_P2;PMS_P1;PMS_P2;Temp;Humidity;BMP_temperature;BMP_pressure;BME280_temperature;BME280_humidity;BME280_pressure;Samples;Min_cycle;Max_cycle;Signal;HPM_P1;HPM_P2
2024/02/07 00:00:40;;;;;;;18.85;5.63;;;12.60;99.90;;;;;;4267136;27;20062;-71
2024/02/07 00:02:43;;;;;;;20.67;6.45;;;12.70;99.90;;;;;;4268191;27;20047;-72
2024/02/07 00:04:45;;;;;;;20.50;5.80;;;12.70;99.90;;;;;;4269455;27;20481;-71
2024/02/07 00:06:47;;;;;;;24.40;6.35;;;12.70;99.90;;;;;;4269544;27;20045;-71
2024/02/07 00:08:49;;;;;;;20.20;6.20;;;12.80;99.90;;;;;;4270272;27;20435;-71
2024/02/07 00:10:51;;;;;;;21.30;6.03;;;12.70;99.90;;;;;;4270971;27;20043;-71
2024/02/07 00:12:54;;;;;;;19.80;7.30;;;12.80;99.90;;;;;;4269445;27;20110;-71
2024/02/07 00:14:56;;;;;;;25.83;6.35;;;12.80;99.90;;;;;;4268960;27;20039;-70
2024/02/07 00:17:00;;;;;;;19.45;6.20;;;12.80;99.90;;;;;;4269015;27;20038;-73
2024/02/07 00:19:03;;;;;;;21.27;6.55;;;12.80;99.90;;;;;;4269961;27;20039;-70
2024/02/07 00:21:05;;;;;;;24.48;6.15;;;12.80;99.90;;;;;;4269884;27;20118;-70
2024/02/07 00:23:07;;;;;;;19.05;6.03;;;12.80;99.90;;;;;;4268756;27;20114;-72
2024/02/07 00:25:09;;;;;;;26.17;6.95;;;12.80;99.90;;;;;;4269700;27;20047;-71
2024/02/07 00:27:11;;;;;;;20.63;6.18;;;12.80;99.90;;;;;;4269269;27;20473;-72
2024/02/07 00:29:13;;;;;;;25.10;6.70;;;12.70;99.90;;;;;;4269065;27;20071;-70
2024/02/07 00:31:15;;;;;;;21.73;6.55;;;12.80;99.90;;;;;;4268344;27;20046;-69
2024/02/07 00:33:19;;;;;;;21.80;5.97;;;12.80;99.90;;;;;;4267171;27;20080;-70
2024/02/07 00:35:21;;;;;;;20.10;6.18;;;12.80;99.90;;;;;;4267381;27;20441;-67
2024/02/07 00:37:23;;;;;;;19.40;5.78;;;12.90;99.90;;;;;;4267151;27;20442;-67
2024/02/07 00:39:26;;;;;;;17.27;5.95;;;12.80;99.90;;;;;;4265676;27;20065;-69
2024/02/07 00:41:28;;;;;;;21.67;7.20;;;12.80;99.90;;;;;;4267056;27;20050;-67
2024/02/07 00:43:32;;;;;;;21.45;5.95;;;12.80;99.90;;;;;;4266455;27;20130;-69
2024/02/07 00:45:34;;;;;;;27.70;7.32;;;12.80;99.90;;;;;;4266865;27;20569;-67
2024/02/07 00:47:36;;;;;;;27.63;7.00;;;12.90;99.90;;;;;;4266042;27;20046;-67
2024/02/07 00:49:41;;;;;;;23.45;7.00;;;12.90;99.90;;;;;;4267035;27;20046;-68
2024/02/07 00:51:43;;;;;;;18.45;6.93;;;12.90;99.90;;;;;;4266580;27;20079;-71
2024/02/07 00:53:45;;;;;;;20.27;7.68;;;12.90;99.90;;;;;;4266628;27;20050;-71
2024/02/07 00:55:47;;;;;;;23.60;7.20;;;12.90;99.90;;;;;;4266481;27;20129;-69
2024/02/07 00:57:50;;;;;;;18.38;5.93;;;12.90;99.90;;;;;;4266360;27;20043;-69
2024/02/07 00:59:52;;;;;;;21.42;6.47;;;12.90;99.90;;;;;;4266880;27;20047;-68
2024/02/07 01:01:54;;;;;;;17.25;6.45;;;12.90;99.90;;;;;;4266221;27;20443;-67
2024/02/07 01:03:56;;;;;;;17.73;6.30;;;12.90;99.90;;;;;;4266338;27;20043;-65
2024/02/07 01:06:00;;;;;;;26.35;6.47;;;12.90;99.90;;;;;;4266379;27;20099;-68
2024/02/07 01:08:03;;;;;;;16.92;6.13;;;12.90;99.90;;;;;;4266431;27;20073;-66
2024/02/07 01:10:07;;;;;;;19.88;6.18;;;12.90;99.90;;;;;;4266208;27;20049;-66
2024/02/07 01:12:09;;;;;;;20.98;6.18;;;12.90;99.90;;;;;;4264272;27;20125;-66
2024/02/07 01:14:11;;;;;;;17.42;5.95;;;12.90;99.90;;;;;;4266076;27;20042;-66
2024/02/07 01:16:13;;;;;;;14.32;5.43;;;12.90;99.90;;;;;;4264697;27;20417;-67
2024/02/07 01:18:16;;;;;;;26.10;7.47;;;13.00;99.90;;;;;;4265888;27;20043;-67
2024/02/07 01:20:18;;;;;;;20.55;6.72;;;12.90;99.90;;;;;;4264683;27;20050;-66
2024/02/07 01:22:22;;;;;;;20.85;6.15;;;12.80;99.90;;;;;;4266348;27;20077;-67
2024/02/07 01:24:24;;;;;;;18.20;5.68;;;12.90;99.90;;;;;;4266522;27;20047;-71
2024/02/07 01:26:26;;;;;;;19.13;6.55;;;12.90;99.90;;;;;;4266319;27;20042;-69
2024/02/07 01:28:29;;;;;;;20.10;6.57;;;12.90;99.90;;;;;;4266484;27;20046;-72
2024/02/07 01:30:31;;;;;;;17.25;6.63;;;12.90;99.90;;;;;;4264515;27;20078;-69
2024/02/07 01:32:33;;;;;;;20.38;5.53;;;12.90;99.90;;;;;;4266137;27;20557;-69
2024/02/07 01:34:35;;;;;;;16.42;5.93;;;12.80;99.90;;;;;;4266207;27;20071;-73
2024/02/07 01:36:43;;;;;;;21.88;5.95;;;12.80;99.90;;;;;;4266294;27;20072;-69
2024/02/07 01:38:47;;;;;;;16.27;5.68;;;12.90;99.90;;;;;;4266230;27;20042;-67
2024/02/07 01:40:49;;;;;;;21.38;6.40;;;12.80;99.90;;;;;;4266316;27;20121;-69
2024/02/07 01:42:51;;;;;;;19.02;5.82;;;12.80;99.90;;;;;;4266062;27;20038;-69
2024/02/07 01:45:20;;;;;;;20.58;5.50;;;12.80;99.90;;;;;;4266782;27;20130;-68
2024/02/07 01:47:22;;;;;;;17.52;5.10;;;12.80;99.90;;;;;;4266736;27;20039;-66
2024/02/07 01:49:24;;;;;;;26.17;6.10;;;12.80;99.90;;;;;;4266022;27;20043;-66
2024/02/07 01:51:27;;;;;;;19.13;5.88;;;12.80;99.90;;;;;;4266115;27;20117;-69
2024/02/07 01:53:30;;;;;;;17.60;5.47;;;12.80;99.90;;;;;;4267458;27;20050;-72
2024/02/07 01:55:35;;;;;;;19.45;5.97;;;12.80;99.90;;;;;;4267718;27;20121;-68
2024/02/07 01:57:37;;;;;;;20.45;5.38;;;12.70;99.90;;;;;;4268907;27;20090;-67
2024/02/07 01:59:41;;;;;;;19.75;6.07;;;12.70;99.90;;;;;;4268108;27;20047;-69
2024/02/07 02:01:44;;;;;;;27.17;6.10;;;12.70;99.90;;;;;;4267820;27;20043;-68
2024/02/07 02:03:46;;;;;;;22.75;6.22;;;12.80;99.90;;;;;;4266355;27;20047;-67
2024/02/07 02:05:49;;;;;;;17.13;5.43;;;12.80;99.90;;;;;;4265843;27;20618;-72
2024/02/07 02:07:51;;;;;;;21.95;7.57;;;12.90;99.90;;;;;;4265481;27;20458;-68
2024/02/07 02:09:54;;;;;;;17.70;6.80;;;12.80;99.90;;;;;;4265266;27;20051;-66
2024/02/07 02:11:58;;;;;;;19.92;7.18;;;12.80;99.90;;;;;;4265829;27;20058;-68
2024/02/07 02:14:01;;;;;;;19.10;6.10;;;12.80;99.90;;;;;;4266046;27;20089;-67
2024/02/07 02:16:03;;;;;;;16.38;5.45;;;12.80;99.90;;;;;;4265836;27;20062;-68
2024/02/07 02:18:06;;;;;;;17.10;5.30;;;12.80;99.90;;;;;;4265601;27;20499;-69
2024/02/07 02:20:09;;;;;;;16.52;5.90;;;12.80;99.90;;;;;;4265225;27;20490;-70
2024/02/07 02:22:49;;;;;;;23.55;5.22;;;12.80;99.90;;;;;;4265612;27;20478;-67
2024/02/07 02:25:08;;;;;;;21.88;5.80;;;12.80;99.90;;;;;;4178832;28;20048;-69
2024/02/07 02:27:28;;;;;;;19.33;5.60;;;12.80;99.90;;;;;;4179193;28;20679;-69
2024/02/07 02:29:37;;;;;;;20.95;6.60;;;12.80;99.90;;;;;;4179198;28;20049;-70
2024/02/07 02:31:39;;;;;;;18.15;6.07;;;12.70;99.90;;;;;;4179816;28;20051;-74
2024/02/07 02:33:42;;;;;;;20.33;6.40;;;12.80;99.90;;;;;;4164062;28;20045;-68
2024/02/07 02:35:49;;;;;;;24.45;6.45;;;12.80;99.90;;;;;;4179653;28;20052;-70
2024/02/07 02:37:51;;;;;;;19.58;5.75;;;12.80;99.90;;;;;;4179257;28;20061;-71
2024/02/07 02:39:54;;;;;;;15.90;6.10;;;12.80;99.90;;;;;;4178734;28;20041;-68
2024/02/07 02:41:56;;;;;;;18.48;6.22;;;12.80;99.90;;;;;;4162593;28;20052;-70
2024/02/07 02:43:58;;;;;;;18.08;6.00;;;12.80;99.90;;;;;;4179003;28;20504;-69
2024/02/07 02:46:02;;;;;;;17.85;6.38;;;12.80;99.90;;;;;;4180241;28;20423;-69
2024/02/07 02:48:05;;;;;;;17.15;5.85;;;12.80;99.90;;;;;;4182133;28;20049;-70
2024/02/07 02:50:10;;;;;;;16.70;6.60;;;12.90;99.90;;;;;;4182791;28;20409;-69
2024/02/07 02:52:13;;;;;;;13.90;5.65;;;12.90;99.90;;;;;;4182741;28;20060;-69
2024/02/07 02:54:16;;;;;;;21.02;6.00;;;12.80;99.90;;;;;;4182587;28;20052;-69
2024/02/07 02:56:18;;;;;;;17.30;7.15;;;12.80;99.90;;;;;;4182990;28;20045;-69
2024/02/07 02:58:20;;;;;;;16.00;6.25;;;12.90;99.90;;;;;;4181709;28;20064;-69
2024/02/07 03:00:37;;;;;;;15.95;6.50;;;12.90;99.90;;;;;;4221347;27;20047;-68
2024/02/07 03:02:43;;;;;;;24.00;6.65;;;12.90;99.90;;;;;;4268330;27;20043;-70
2024/02/07 03:04:49;;;;;;;23.90;6.53;;;12.90;99.90;;;;;;4267954;27;20398;-69
2024/02/07 03:06:58;;;;;;;19.52;6.05;;;12.90;99.90;;;;;;4268536;27;20466;-70
2024/02/07 03:09:09;;;;;;;18.33;6.25;;;12.90;99.90;;;;;;4267647;27;20046;-70
2024/02/07 03:11:11;;;;;;;17.20;5.75;;;12.90;99.90;;;;;;4268162;27;20055;-69
2024/02/07 03:13:13;;;;;;;21.20;5.85;;;12.90;99.90;;;;;;4268323;27;20051;-68
2024/02/07 03:15:15;;;;;;;16.80;7.22;;;12.90;99.90;;;;;;4268527;27;20460;-69
2024/02/07 03:17:18;;;;;;;17.77;6.13;;;12.90;99.90;;;;;;4249873;27;20511;-68
2024/02/07 03:19:21;;;;;;;21.52;5.90;;;12.90;99.90;;;;;;4268243;27;20049;-70
2024/02/07 03:21:24;;;;;;;23.63;5.80;;;12.80;99.90;;;;;;4267946;27;20043;-70
2024/02/07 03:23:28;;;;;;;15.50;5.38;;;12.80;99.90;;;;;;4268121;27;20099;-70
2024/02/07 03:25:32;;;;;;;19.45;5.90;;;12.90;99.90;;;;;;4268213;27;20043;-70
2024/02/07 03:27:35;;;;;;;18.52;5.72;;;12.80;99.90;;;;;;4268021;27;20129;-69
2024/02/07 03:29:37;;;;;;;15.38;6.38;;;12.90;99.90;;;;;;4249521;27;20063;-69
2024/02/07 03:31:40;;;;;;;15.05;5.97;;;12.90;99.90;;;;;;4268525;27;20075;-68
2024/02/07 03:33:43;;;;;;;17.15;6.10;;;12.90;99.90;;;;;;4269627;27;20057;-68
2024/02/07 03:35:47;;;;;;;22.63;6.35;;;12.90;99.90;;;;;;4270686;27;20057;-71
2024/02/07 03:37:49;;;;;;;21.05;6.53;;;12.90;99.90;;;;;;4269846;27;20039;-69
2024/02/07 03:39:53;;;;;;;21.75;5.57;;;12.80;99.90;;;;;;4270251;27;20043;-71
2024/02/07 03:41:56;;;;;;;19.70;6.28;;;12.90;99.90;;;;;;4268514;27;20050;-71
2024/02/07 03:43:58;;;;;;;19.40;5.60;;;12.90;99.90;;;;;;4267910;27;20054;-70
2024/02/07 03:46:05;;;;;;;20.83;6.75;;;12.80;99.90;;;;;;4267750;27;20047;-70
2024/02/07 03:48:12;;;;;;;18.50;6.07;;;12.80;99.90;;;;;;4267346;27;20205;-70
2024/02/07 03:50:15;;;;;;;25.85;7.03;;;12.80;99.90;;;;;;4267588;27;20404;-71
2024/02/07 03:52:19;;;;;;;15.68;6.50;;;12.70;99.90;;;;;;4267390;27;20065;-70
2024/02/07 03:54:21;;;;;;;17.55;6.20;;;12.80;99.90;;;;;;4248293;27;20062;-70
2024/02/07 03:56:23;;;;;;;23.42;7.57;;;12.80;99.90;;;;;;4266761;27;20047;-72
2024/02/07 03:58:25;;;;;;;20.05;6.38;;;12.80;99.90;;;;;;4266662;27;20062;-72
2024/02/07 04:00:27;;;;;;;17.67;5.72;;;12.80;99.90;;;;;;4267118;27;20046;-69
2024/02/07 04:02:29;;;;;;;15.43;6.20;;;12.80;99.90;;;;;;4267087;27;20404;-69
2024/02/07 04:04:31;;;;;;;19.55;6.10;;;12.90;99.90;;;;;;4267331;27;20067;-69
2024/02/07 04:06:33;;;;;;;25.42;6.28;;;12.80;99.90;;;;;;4267172;27;20043;-69
2024/02/07 04:08:38;;;;;;;16.70;6.35;;;12.80;99.90;;;;;;4266772;27;20065;-70
2024/02/07 04:10:42;;;;;;;19.70;6.53;;;12.80;99.90;;;;;;4266627;27;20054;-70
2024/02/07 05:15:42;;;;;;;17.65;6.22;;;12.50;99.90;;;;;;4269030;27;20142;-70
2024/02/07 05:17:45;;;;;;;17.08;6.15;;;12.50;99.90;;;;;;4269760;27;20503;-71
2024/02/07 05:19:48;;;;;;;20.23;6.20;;;12.50;99.90;;;;;;4267930;27;20069;-69
2024/02/07 05:21:50;;;;;;;25.15;7.05;;;12.40;99.90;;;;;;4267357;27;20110;-71
2024/02/07 05:23:53;;;;;;;20.98;6.20;;;12.40;99.90;;;;;;4247509;27;20122;-68
2024/02/07 05:25:57;;;;;;;20.08;6.40;;;12.40;99.90;;;;;;4265778;27;20045;-70
2024/02/07 05:27:59;;;;;;;18.55;6.63;;;12.40;99.90;;;;;;4266095;27;20496;-70
2024/02/07 05:30:03;;;;;;;19.35;6.40;;;12.40;99.90;;;;;;4265833;27;20485;-70
2024/02/07 05:32:07;;;;;;;11.95;5.47;;;12.40;99.90;;;;;;4265543;27;20130;-69
2024/02/07 05:34:09;;;;;;;19.20;6.13;;;12.40;99.90;;;;;;4246465;27;20097;-70
2024/02/07 05:36:12;;;;;;;18.60;6.55;;;12.50;99.90;;;;;;4265232;27;20065;-67
2024/02/07 05:38:14;;;;;;;14.02;6.35;;;12.50;99.90;;;;;;4265270;27;20074;-67
2024/02/07 05:40:17;;;;;;;21.45;6.20;;;12.50;99.90;;;;;;4265197;27;20516;-67
2024/02/07 05:42:19;;;;;;;17.38;7.10;;;12.40;99.90;;;;;;4265343;27;20034;-71
2024/02/07 05:44:21;;;;;;;17.88;7.10;;;12.40;99.90;;;;;;4246837;27;20043;-68
2024/02/07 05:46:25;;;;;;;24.70;6.40;;;12.40;99.90;;;;;;4265251;27;20038;-70
2024/02/07 05:48:29;;;;;;;21.35;6.68;;;12.50;99.90;;;;;;4265433;27;20458;-68
2024/02/07 05:50:31;;;;;;;23.80;6.90;;;12.40;99.90;;;;;;4265883;27;20400;-69
2024/02/07 05:52:33;;;;;;;19.25;6.47;;;12.40;99.90;;;;;;4265244;27;20111;-69
2024/02/07 05:54:36;;;;;;;20.58;7.10;;;12.40;99.90;;;;;;4265102;27;20089;-71
2024/02/07 05:56:38;;;;;;;19.73;7.50;;;12.40;99.90;;;;;;4265427;27;20050;-69
2024/02/07 05:58:40;;;;;;;17.40;7.13;;;12.50;99.90;;;;;;4247055;27;20070;-69
2024/02/07 06:00:42;;;;;;;19.98;6.65;;;12.40;99.90;;;;;;4265082;27;20465;-73
2024/02/07 06:02:46;;;;;;;16.75;6.53;;;12.40;99.90;;;;;;4265164;27;20042;-69
2024/02/07 06:04:50;;;;;;;18.70;6.13;;;12.40;99.90;;;;;;4265561;27;20078;-69
2024/02/07 06:06:53;;;;;;;16.42;7.05;;;12.40;99.90;;;;;;4265310;27;20447;-70
2024/02/07 06:08:57;;;;;;;19.75;6.85;;;12.30;99.90;;;;;;4265387;27;20426;-69
2024/02/07 06:10:59;;;;;;;23.83;6.82;;;12.40;99.90;;;;;;4265534;27;20107;-70
2024/02/07 06:13:03;;;;;;;19.90;7.00;;;12.40;99.90;;;;;;4265334;27;20080;-69
2024/02/07 06:15:06;;;;;;;19.50;7.70;;;12.40;99.90;;;;;;4265037;27;20129;-67
2024/02/07 06:17:08;;;;;;;23.42;7.38;;;12.40;99.90;;;;;;4264663;27;20043;-68
2024/02/07 06:19:12;;;;;;;21.83;7.45;;;12.30;99.90;;;;;;4264795;27;20279;-68
2024/02/07 06:21:16;;;;;;;20.38;6.82;;;12.30;99.90;;;;;;4267454;27;20042;-70
2024/02/07 06:23:18;;;;;;;18.55;6.90;;;12.40;99.90;;;;;;4268655;27;20545;-67
2024/02/07 06:25:20;;;;;;;19.83;6.65;;;12.40;99.90;;;;;;4268564;27;20089;-66
2024/02/07 06:27:22;;;;;;;17.40;7.53;;;12.40;99.90;;;;;;4268416;27;20062;-68
2024/02/07 06:29:24;;;;;;;19.55;6.78;;;12.30;99.90;;;;;;4268589;27;20513;-71
2024/02/07 06:31:26;;;;;;;16.52;5.57;;;12.30;99.90;;;;;;4268386;27;20047;-72
2024/02/07 06:33:28;;;;;;;21.35;7.20;;;12.30;99.90;;;;;;4269032;27;20042;-72
2024/02/07 06:35:32;;;;;;;18.23;6.63;;;12.30;99.90;;;;;;4269456;27;20051;-71
2024/02/07 06:37:37;;;;;;;15.98;6.25;;;12.30;99.90;;;;;;4268485;27;20486;-70
2024/02/07 06:39:39;;;;;;;17.17;6.43;;;12.30;99.90;;;;;;4268325;27;20043;-69
2024/02/07 06:41:41;;;;;;;24.25;7.10;;;12.30;99.90;;;;;;4268533;27;20077;-70
2024/02/07 06:43:43;;;;;;;19.15;7.43;;;12.30;99.90;;;;;;4268919;27;20103;-70
2024/02/07 06:45:45;;;;;;;16.13;6.90;;;12.30;99.90;;;;;;4268610;27;20043;-71
2024/02/07 06:47:48;;;;;;;20.10;7.03;;;12.30;99.90;;;;;;4268732;27;20053;-71
2024/02/07 06:49:50;;;;;;;19.42;6.70;;;12.30;99.90;;;;;;4250220;27;20051;-73
2024/02/07 06:51:53;;;;;;;22.58;6.88;;;12.30;99.90;;;;;;4270277;27;20050;-70
2024/02/07 06:53:55;;;;;;;15.38;6.53;;;12.30;99.90;;;;;;4271461;27;20118;-69
2024/02/07 06:55:57;;;;;;;14.35;6.25;;;12.30;99.90;;;;;;4272623;27;20528;-71
2024/02/07 06:58:01;;;;;;;16.92;6.70;;;12.40;99.90;;;;;;4271982;27;20161;-74
2024/02/07 07:00:04;;;;;;;20.85;7.10;;;12.40;99.90;;;;;;4271062;27;20053;-71
2024/02/07 07:02:06;;;;;;;21.05;6.70;;;12.40;99.90;;;;;;4270643;27;20043;-70
2024/02/07 07:04:11;;;;;;;17.83;6.75;;;12.40;99.90;;;;;;4249607;27;20050;-69
2024/02/07 07:06:13;;;;;;;20.20;6.95;;;12.40;99.90;;;;;;4268425;27;20051;-70
2024/02/07 07:08:16;;;;;;;15.23;6.72;;;12.40;99.90;;;;;;4268194;27;20046;-70
2024/02/07 07:10:18;;;;;;;18.23;6.75;;;12.50;99.90;;;;;;4268177;27;20406;-69
2024/02/07 07:12:21;;;;;;;20.70;7.88;;;12.50;99.90;;;;;;4268653;27;20043;-71
2024/02/07 07:14:23;;;;;;;23.20;6.32;;;12.50;99.90;;;;;;4268348;27;20050;-68
2024/02/07 07:16:26;;;;;;;20.63;7.72;;;12.50;99.90;;;;;;4267895;27;20053;-71
2024/02/07 07:18:28;;;;;;;18.13;6.75;;;12.50;99.90;;;;;;4268655;27;20053;-74
2024/02/07 07:20:31;;;;;;;22.85;6.88;;;12.50;99.90;;;;;;4250103;27;20501;-72
2024/02/07 07:22:34;;;;;;;21.13;7.40;;;12.50;99.90;;;;;;4268219;27;20043;-70
2024/02/07 07:24:37;;;;;;;17.25;6.50;;;12.40;99.90;;;;;;4267957;27;20493;-70
2024/02/07 07:26:40;;;;;;;16.60;6.30;;;12.50;99.90;;;;;;4268112;27;20043;-69
2024/02/07 07:28:42;;;;;;;19.13;7.85;;;12.60;99.90;;;;;;4267568;27;20093;-71
2024/02/07 07:30:44;;;;;;;19.13;7.65;;;12.50;99.90;;;;;;4267071;27;20093;-70
2024/02/07 07:32:47;;;;;;;21.38;6.88;;;12.60;99.90;;;;;;4267805;27;20060;-70
2024/02/07 07:34:49;;;;;;;25.15;8.20;;;12.60;99.90;;;;;;4267287;27;20057;-69
2024/02/07 07:36:52;;;;;;;28.33;7.95;;;12.60;99.90;;;;;;4267369;27;20047;-69
2024/02/07 07:38:54;;;;;;;19.73;7.13;;;12.70;99.90;;;;;;4267703;27;20042;-69
2024/02/07 07:40:58;;;;;;;18.50;7.55;;;12.60;99.90;;;;;;4267961;27;20314;-69
2024/02/07 07:43:00;;;;;;;20.70;7.38;;;12.60;99.90;;;;;;4267468;27;20391;-70
2024/02/07 07:45:03;;;;;;;19.88;7.30;;;12.60;99.90;;;;;;4267005;27;20055;-70
2024/02/07 07:47:05;;;;;;;27.08;7.57;;;12.60;99.90;;;;;;4268016;27;20043;-71
2024/02/07 07:49:07;;;;;;;20.40;6.40;;;12.70;99.90;;;;;;4267468;27;20167;-69
2024/02/07 07:51:09;;;;;;;21.48;7.45;;;12.70;99.90;;;;;;4266255;27;20051;-72
2024/02/07 07:53:11;;;;;;;22.20;6.93;;;12.70;99.90;;;;;;4266043;27;20074;-69
2024/02/07 07:55:15;;;;;;;24.83;7.20;;;12.70;99.90;;;;;;4267127;27;20380;-71
2024/02/07 07:57:19;;;;;;;17.55;7.40;;;12.70;99.90;;;;;;4267663;27;20505;-71
2024/02/07 07:59:21;;;;;;;21.83;7.32;;;12.70;99.90;;;;;;4268021;27;20062;-69
2024/02/07 08:01:23;;;;;;;24.92;7.57;;;12.70;99.90;;;;;;4268365;27;20074;-71
2024/02/07 08:03:26;;;;;;;20.75;7.25;;;12.70;99.90;;;;;;4269285;27;20046;-70
2024/02/07 08:05:28;;;;;;;17.80;7.30;;;12.80;99.90;;;;;;4267407;27;20050;-71
2024/02/07 08:07:30;;;;;;;21.70;7.47;;;12.80;99.90;;;;;;4267264;27;20425;-70
2024/02/07 08:09:33;;;;;;;24.83;7.72;;;12.80;99.90;;;;;;4267530;27;20043;-70
2024/02/07 08:11:35;;;;;;;19.67;7.90;;;12.80;99.90;;;;;;4267104;27;20047;-69
2024/02/07 08:13:38;;;;;;;19.92;8.20;;;12.80;99.90;;;;;;4265267;27;20057;-69
2024/02/07 08:15:40;;;;;;;26.45;9.43;;;12.80;99.90;;;;;;4266820;27;20049;-69
2024/02/07 08:17:42;;;;;;;20.45;7.72;;;12.60;99.90;;;;;;4266901;27;20043;-70
2024/02/07 08:19:46;;;;;;;21.52;8.23;;;12.70;99.90;;;;;;4266975;27;20046;-70
2024/02/07 08:21:48;;;;;;;16.50;7.18;;;12.70;99.90;;;;;;4266952;27;20055;-71
2024/02/07 08:23:50;;;;;;;22.17;7.47;;;12.80;99.90;;;;;;4267362;27;20043;-70
2024/02/07 08:25:52;;;;;;;22.92;7.55;;;12.80;99.90;;;;;;4268586;27;20043;-73
2024/02/07 08:27:54;;;;;;;18.95;7.00;;;12.70;99.90;;;;;;4266967;27;20038;-69
2024/02/07 08:29:57;;;;;;;19.02;7.63;;;12.70;99.90;;;;;;4266684;27;20070;-69
2024/02/07 08:32:00;;;;;;;22.67;8.13;;;12.80;99.90;;;;;;4268465;27;20062;-71
2024/02/07 08:34:02;;;;;;;23.08;7.20;;;12.70;99.90;;;;;;4271034;27;20045;-69
2024/02/07 08:36:07;;;;;;;23.15;8.48;;;12.80;99.90;;;;;;4270368;27;20050;-69
2024/02/07 08:38:10;;;;;;;18.27;7.40;;;12.70;99.90;;;;;;4269810;27;20043;-69
2024/02/07 08:40:13;;;;;;;21.40;8.02;;;12.70;99.90;;;;;;4268682;27;20035;-68
2024/02/07 08:42:15;;;;;;;17.65;7.28;;;12.80;99.90;;;;;;4267003;27;20126;-69
2024/02/07 08:44:17;;;;;;;22.17;7.93;;;12.80;99.90;;;;;;4265991;27;20047;-69
2024/02/07 08:46:21;;;;;;;17.42;6.97;;;12.80;99.90;;;;;;4266403;27;20042;-70
2024/02/07 08:48:23;;;;;;;21.67;8.15;;;12.80;99.90;;;;;;4266879;27;20038;-69
2024/02/07 08:50:26;;;;;;;19.77;7.43;;;12.80;99.90;;;;;;4266703;27;20047;-69
2024/02/07 08:52:27;;;;;;;18.40;7.55;;;12.80;99.90;;;;;;4266125;27;20043;-69
2024/02/07 08:54:32;;;;;;;18.33;7.78;;;12.80;99.90;;;;;;4247513;27;20100;-72
2024/02/07 08:56:34;;;;;;;26.15;7.90;;;12.80;99.90;;;;;;4266366;27;20129;-69
2024/02/07 08:58:38;;;;;;;23.35;7.57;;;12.80;99.90;;;;;;4248433;27;20043;-69
2024/02/07 09:00:40;;;;;;;16.55;5.53;;;12.80;99.90;;;;;;4266227;27;20055;-69
2024/02/07 09:02:49;;;;;;;17.80;7.55;;;12.80;99.90;;;;;;4266483;27;20038;-69
2024/02/07 09:04:51;;;;;;;22.67;8.20;;;12.80;99.90;;;;;;4266323;27;20034;-69
2024/02/07 09:06:53;;;;;;;22.30;7.70;;;12.80;99.90;;;;;;4266287;27;20204;-72
2024/02/07 09:08:56;;;;;;;19.50;7.90;;;12.80;99.90;;;;;;4266223;27;20053;-73
2024/02/07 09:11:00;;;;;;;;;;;12.80;99.90;;;;;;4268263;27;20534;-71
2024/02/07 09:13:03;;;;;;;19.70;7.80;;;12.70;99.90;;;;;;4268165;27;19964;-75
2024/02/07 09:15:05;;;;;;;22.58;7.88;;;12.80;99.90;;;;;;4267089;27;20461;-73
2024/02/07 09:17:08;;;;;;;13.88;6.43;;;12.80;99.90;;;;;;4263807;27;20047;-69
2024/02/07 09:19:11;;;;;;;24.73;8.15;;;12.80;99.90;;;;;;4257481;27;20043;-71
2024/02/07 09:21:15;;;;;;;21.00;8.02;;;13.00;99.90;;;;;;4265623;27;20039;-70
2024/02/07 09:23:17;;;;;;;19.13;8.80;;;13.00;99.90;;;;;;4260663;27;20448;-69
2024/02/07 09:25:20;;;;;;;17.05;7.18;;;13.00;99.90;;;;;;4262652;27;20081;-69
2024/02/07 09:27:22;;;;;;;21.13;7.80;;;12.90;99.90;;;;;;4263803;27;20050;-69
2024/02/07 09:29:24;;;;;;;19.48;7.80;;;12.90;99.90;;;;;;4265399;27;20050;-66
2024/02/07 09:31:27;;;;;;;18.33;8.27;;;12.80;99.90;;;;;;4265767;27;20046;-66
2024/02/07 09:33:29;;;;;;;18.08;8.75;;;12.90;99.90;;;;;;4265551;27;20047;-66
2024/02/07 09:35:32;;;;;;;21.35;8.45;;;12.90;99.90;;;;;;4266581;27;20455;-70
2024/02/07 09:37:36;;;;;;;24.40;8.88;;;12.90;99.90;;;;;;4262279;27;20050;-69
2024/02/07 09:39:38;;;;;;;23.85;9.25;;;12.90;99.90;;;;;;4255953;27;20117;-69
2024/02/07 09:41:42;;;;;;;22.77;9.15;;;12.90;99.90;;;;;;4262164;27;20042;-67
2024/02/07 09:43:45;;;;;;;21.13;9.10;;;12.90;99.90;;;;;;4251473;27;20095;-68
2024/02/07 09:45:52;;;;;;;19.90;8.98;;;12.90;99.90;;;;;;4248459;27;20414;-68
2024/02/07 09:48:02;;;;;;;17.45;8.15;;;12.90;99.90;;;;;;4248092;27;20455;-70
2024/02/07 09:50:08;;;;;;;17.48;8.10;;;12.80;99.90;;;;;;4252308;27;20438;-70
2024/02/07 09:52:14;;;;;;;24.33;9.20;;;12.80;99.90;;;;;;4251132;27;20107;-68
2024/02/07 09:54:18;;;;;;;21.73;8.38;;;12.70;99.90;;;;;;4262145;27;20057;-72
2024/02/07 09:56:22;;;;;;;17.63;8.55;;;12.70;99.90;;;;;;4264828;27;20045;-74
2024/02/07 09:58:25;;;;;;;22.70;8.75;;;12.60;99.90;;;;;;4253698;27;20047;-68
2024/02/07 10:00:27;;;;;;;23.75;9.02;;;12.50;99.90;;;;;;4247613;27;20047;-73
2024/02/07 10:02:35;;;;;;;19.35;9.15;;;12.50;99.90;;;;;;4229723;28;20074;-71
2024/02/07 10:04:41;;;;;;;16.85;7.53;;;12.50;99.90;;;;;;4249603;27;20046;-73
2024/02/07 10:06:45;;;;;;;22.13;9.57;;;12.60;99.90;;;;;;4264590;27;20046;-72
2024/02/07 10:08:49;;;;;;;17.73;7.57;;;12.50;99.90;;;;;;4258310;27;20070;-71
2024/02/07 10:10:51;;;;;;;18.80;9.20;;;12.60;99.90;;;;;;4252945;27;20054;-73
2024/02/07 10:12:56;;;;;;;21.30;7.63;;;12.50;99.90;;;;;;4260643;27;20390;-72
2024/02/07 10:15:00;;;;;;;18.08;7.57;;;12.50;99.90;;;;;;4261653;27;20047;-72
2024/02/07 10:17:04;;;;;;;17.92;8.50;;;12.60;99.90;;;;;;4258193;27;20039;-72
2024/02/07 10:19:06;;;;;;;17.42;8.05;;;12.60;99.90;;;;;;4251225;28;20071;-72
2024/02/07 10:21:08;;;;;;;20.25;8.38;;;12.60;99.90;;;;;;4249714;28;20130;-72
2024/02/07 10:23:10;;;;;;;18.13;7.95;;;12.60;99.90;;;;;;4246903;27;20043;-71
2024/02/07 10:25:15;;;;;;;16.40;7.53;;;12.60;99.90;;;;;;4250312;27;20046;-73
2024/02/07 10:27:19;;;;;;;20.15;7.88;;;12.60;99.90;;;;;;4254918;27;20050;-74
2024/02/07 10:29:25;;;;;;;16.87;8.03;;;12.60;99.90;;;;;;4264687;27;20050;-70
2024/02/07 10:31:27;;;;;;;;;;;12.50;99.90;;;;;;4254715;27;20451;-69
2024/02/07 10:33:35;;;;;;;19.15;7.30;;;12.50;99.90;;;;;;4246979;27;19929;-71
2024/02/07 10:35:43;;;;;;;15.27;6.75;;;12.50;99.90;;;;;;4254966;27;20455;-71
2024/02/07 10:37:45;;;;;;;12.68;6.85;;;12.60;99.90;;;;;;4253131;27;20092;-70
2024/02/07 10:39:49;;;;;;;22.40;7.38;;;12.60;99.90;;;;;;4257760;27;20047;-69
2024/02/07 10:41:53;;;;;;;13.70;6.50;;;12.70;99.90;;;;;;4251482;27;20051;-71
2024/02/07 10:44:05;;;;;;;14.75;6.88;;;12.70;99.90;;;;;;4236678;28;20480;-78
2024/02/07 10:46:12;;;;;;;16.55;7.07;;;12.70;99.90;;;;;;4251920;27;20062;-73
2024/02/07 10:48:16;;;;;;;13.02;5.93;;;12.70;99.90;;;;;;4249353;28;20046;-70
2024/02/07 10:50:21;;;;;;;16.83;6.50;;;12.70;99.90;;;;;;4248736;28;20198;-72
2024/02/07 10:52:24;;;;;;;13.82;6.32;;;12.80;99.90;;;;;;4251951;27;20046;-70
2024/02/07 10:54:26;;;;;;;13.48;6.13;;;12.80;99.90;;;;;;4246356;27;20134;-70
2024/02/07 10:56:28;;;;;;;10.75;5.68;;;12.80;99.90;;;;;;4264914;27;20125;-71
2024/02/07 10:58:33;;;;;;;14.02;5.88;;;12.80;99.90;;;;;;4250852;27;20383;-71
2024/02/07 11:00:35;;;;;;;12.80;5.68;;;12.80;99.90;;;;;;4260420;27;20039;-69
2024/02/07 11:02:38;;;;;;;13.55;5.32;;;12.80;99.90;;;;;;4263352;27;20115;-70
2024/02/07 11:04:42;;;;;;;12.75;4.90;;;12.80;99.90;;;;;;4250766;27;20060;-69
2024/02/07 11:06:45;;;;;;;13.75;5.90;;;12.80;99.90;;;;;;4231219;27;20142;-68
2024/02/07 11:08:48;;;;;;;13.57;6.28;;;12.80;99.90;;;;;;4249606;27;20460;-74
2024/02/07 11:10:52;;;;;;;11.32;5.18;;;12.80;99.90;;;;;;4260884;27;20144;-70
2024/02/07 11:12:55;;;;;;;13.93;5.43;;;12.80;99.90;;;;;;4266927;27;20171;-69
2024/02/07 11:15:03;;;;;;;14.10;5.38;;;12.90;99.90;;;;;;4268594;27;20070;-72
2024/02/07 11:17:08;;;;;;;13.27;5.82;;;12.90;99.90;;;;;;4268170;27;20042;-69
2024/02/07 11:19:10;;;;;;;11.43;5.68;;;12.80;99.90;;;;;;4261347;27;20755;-71
2024/02/07 11:21:17;;;;;;;10.55;5.18;;;12.80;99.90;;;;;;4267209;27;20103;-72
2024/02/07 11:23:25;;;;;;;11.85;4.80;;;12.80;99.90;;;;;;4266496;27;20043;-69
2024/02/07 11:25:30;;;;;;;8.50;4.88;;;12.80;99.90;;;;;;4268023;27;20043;-70
2024/02/07 11:27:32;;;;;;;;;;;12.90;99.90;;;;;;4241751;27;20471;-74
2024/02/07 11:29:35;;;;;;;10.02;4.80;;;12.90;99.90;;;;;;4260152;27;19961;-69
2024/02/07 11:31:39;;;;;;;10.45;4.40;;;12.90;99.90;;;;;;4265246;27;20149;-72
2024/02/07 11:33:43;;;;;;;8.25;4.78;;;12.90;99.90;;;;;;4260931;27;20061;-72
2024/02/07 11:35:45;;;;;;;7.18;4.25;;;13.00;99.90;;;;;;4250985;27;20049;-70
2024/02/07 11:37:48;;;;;;;10.02;4.65;;;13.00;99.90;;;;;;4267829;27;20046;-72